This is the latest recevied weather packets stored in our database for station/object OE-2100. If no packets are shown the sender has not sent any weather packets the latest 10 day(s).
| Time | Temp. | Humidity | Pressure | Rain* | Wind** | Luminosity | Snow |
|---|---|---|---|---|---|---|---|
| 1788421268 | 21.11° C | 68% | 1022.3 hPa | - | - | - | - |
| 1788419468 | 20.56° C | 69% | 1021.4 hPa | - | - | - | - |
| 1788417667 | 19.44° C | 71% | 1021.6 hPa | - | - | - | - |
| 1788415868 | 18.33° C | 70% | 1021.9 hPa | - | - | - | - |
| 1788414068 | 17.22° C | 70% | 1022.2 hPa | - | - | - | - |
| 1788412268 | 17.78° C | 65% | 1022 hPa | - | - | - | - |
| 1788410467 | 17.78° C | 65% | 1022 hPa | - | - | - | - |
| 1788408668 | 17.22° C | 67% | 1022.1 hPa | - | - | - | - |
| 1788405068 | 17.22° C | 69% | 1022.2 hPa | - | - | - | - |
| 1788401468 | 17.78° C | 64% | 1021 hPa | - | - | - | - |
| 1788358268 | 22.78° C | 55% | 1018.6 hPa | - | - | - | - |
| 1788356467 | 22.22° C | 55% | 1018.7 hPa | - | - | - | - |
| 1788354668 | 22.22° C | 54% | 1018.8 hPa | - | - | - | - |
| 1788352868 | 21.67° C | 55% | 1019.9 hPa | - | - | - | - |
| 1788351068 | 21.67° C | 56% | 1019.9 hPa | - | - | - | - |
| 1788347468 | 22.22° C | 58% | 1019.9 hPa | - | - | - | - |
| 1788345668 | 23.89° C | 54% | 1019.4 hPa | - | - | - | - |
| 1788343868 | 23.33° C | 54% | 1019.5 hPa | - | - | - | - |
| 1788342068 | 23.33° C | 56% | 1020.6 hPa | - | - | - | - |
| 1788340268 | 22.22° C | 62% | 1020.9 hPa | - | - | - | - |
| 1788338468 | 21.11° C | 65% | 1021.2 hPa | - | - | - | - |
| 1788336668 | 20° C | 68% | 1021.4 hPa | - | - | - | - |
| 1788334868 | 19.44° C | 70% | 1020.6 hPa | - | - | - | - |
| 1788333188 | 17.78° C | 73% | 1021 hPa | - | - | - | - |
| 1788331268 | 16.67° C | 76% | 1022.3 hPa | - | - | - | - |
* Rain since midnight (hover to see other rain measurements)
** Current wind speed in m/s (hover to see current wind gust speed)